Archival Weather

Chicago O'Hare International

Chicago, Illinois (KORD)

Report from: Friday, May 26, 2023 8:51 AM CDT
Current time: Wednesday, May 29, 2024 4:34 AM CDT

Current weather – Weather history – Daily summaries
Weather forecast

Temperature16.1°C (61.0°F)
Dew point5.0°C (41.0°F)
Winds 4 kts (2.1 m/s, 4.6 mph) North-Northeast (30°)
Visibility10 mi. (16.1 km)
Clouds Few clouds 30,000 ft. (9,144 m)
Altimeter30.37 in.Hg (1028 mB)
Relative humidity48 %
Density altitude-250 ft. (-76 m)
Sea-level pressure102.8 kPa (1028 mB, 30.37 in.Hg)
Remarks Automated weather observing station with precipitation discriminator
Flight conditions Visual Meteorological Conditions
Raw dataKORD 261351Z 03004KT 10SM FEW300 16/05 A3037 RMK AO2 SLP284 T01610050
An error has occurred. This application may no longer respond until reloaded. Reload 🗙